Time;durP1;ratioP1;P1;durP2;ratioP2;P2;SDS_P1;SDS_P2;PMS_P1;PMS_P2;Temp;Humidity;BMP_temperature;BMP_pressure;BME280_temperature;BME280_humidity;BME280_pressure;Samples;Min_cycle;Max_cycle;Signal;HPM_P1;HPM_P2
2024/04/01 00:01:05;;;;;;;;;;;;;;;16.47;56.53;100716.41;5087230;28;1811;-47
2024/04/01 00:03:31;;;;;;;;;;;;;;;16.39;56.35;100709.53;5097339;28;1116;-49
2024/04/01 00:05:57;;;;;;;;;;;;;;;16.27;56.08;100707.06;5085373;28;1104;-45
2024/04/01 00:08:23;;;;;;;;;;;;;;;16.41;56.95;100701.84;5096937;28;1051;-47
2024/04/01 00:10:48;;;;;;;;;;;;;;;17.67;56.02;100700.22;5084429;28;1142;-47
2024/04/01 00:13:15;;;;;;;;;;;;;;;17.49;56.34;100709.06;5098134;28;1170;-48
2024/04/01 00:15:40;;;;;;;;;;;;;;;16.98;56.80;100710.06;5084079;28;1966;-44
2024/04/01 00:18:06;;;;;;;;;;;;;;;16.73;56.74;100709.81;5094291;28;1146;-46
2024/04/01 00:20:31;;;;;;;;;;;;;;;16.61;56.51;100706.53;5095355;28;1098;-44
2024/04/01 00:22:58;;;;;;;;;;;;;;;16.45;56.70;100707.63;5097722;28;1073;-45
2024/04/01 00:25:23;;;;;;;;;;;;;;;16.38;56.32;100703.25;5097606;28;1054;-44
2024/04/01 00:27:49;;;;;;;;;;;;;;;16.37;56.10;100711.75;5098069;28;1026;-44
2024/04/01 00:30:14;;;;;;;;;;;;;;;17.06;57.01;100710.31;5096821;28;1128;-46
2024/04/01 00:32:40;;;;;;;;;;;;;;;18.00;55.15;100705.28;5086717;28;2652;-49
2024/04/01 00:35:05;;;;;;;;;;;;;;;17.20;56.64;100709.75;5094261;28;1913;-46
2024/04/01 00:37:31;;;;;;;;;;;;;;;16.82;56.91;100706.50;5097305;28;972;-49
2024/04/01 00:39:56;;;;;;;;;;;;;;;16.65;56.76;100713.09;5097171;28;1030;-44
2024/04/01 00:42:22;;;;;;;;;;;;;;;16.60;56.39;100713.09;5086452;28;1152;-49
2024/04/01 00:44:48;;;;;;;;;;;;;;;16.64;57.11;100711.44;5080135;28;1026;-46
2024/04/01 00:47:13;;;;;;;;;;;;;;;17.89;55.59;100702.56;5097193;28;1102;-47
2024/04/01 00:49:39;;;;;;;;;;;;;;;17.29;56.42;100710.81;5078966;28;1117;-45
2024/04/01 00:52:04;;;;;;;;;;;;;;;16.94;56.56;100707.03;5097489;28;983;-48
2024/04/01 00:54:30;;;;;;;;;;;;;;;16.61;57.08;100709.25;5076391;28;1984;-48
2024/04/01 00:56:55;;;;;;;;;;;;;;;16.56;56.54;100703.78;5068834;28;1178;-47
2024/04/01 00:59:21;;;;;;;;;;;;;;;16.47;56.26;100709.00;5095848;28;1010;-45
2024/04/01 01:01:46;;;;;;;;;;;;;;;16.30;56.40;100706.53;5076919;28;2698;-49
2024/04/01 01:04:12;;;;;;;;;;;;;;;16.31;56.91;100705.41;5091205;28;1027;-48
2024/04/01 01:06:37;;;;;;;;;;;;;;;17.68;56.09;100701.84;5074500;28;1135;-48
2024/04/01 01:09:03;;;;;;;;;;;;;;;17.65;55.86;100696.91;5073359;28;1106;-48
2024/04/01 01:11:28;;;;;;;;;;;;;;;16.99;56.86;100690.56;5096970;28;1046;-46
2024/04/01 01:13:54;;;;;;;;;;;;;;;16.79;56.78;100696.91;5065265;28;1913;-44
2024/04/01 01:16:19;;;;;;;;;;;;;;;16.62;56.66;100701.84;5087042;28;1191;-46
2024/04/01 01:18:45;;;;;;;;;;;;;;;16.54;56.33;100695.00;5073783;28;1135;-47
2024/04/01 01:21:10;;;;;;;;;;;;;;;16.45;56.12;100696.63;5078827;28;1062;-50
2024/04/01 01:23:36;;;;;;;;;;;;;;;16.41;56.18;100690.84;5096277;28;1010;-46
2024/04/01 01:26:02;;;;;;;;;;;;;;;17.53;56.41;100693.66;5086519;28;1087;-50
2024/04/01 01:28:29;;;;;;;;;;;;;;;17.62;55.87;100692.78;5093188;28;1154;-49
2024/04/01 01:30:55;;;;;;;;;;;;;;;17.03;56.69;100685.34;5072760;28;1828;-48
2024/04/01 01:33:20;;;;;;;;;;;;;;;16.79;56.89;100691.41;5093265;28;1039;-48
2024/04/01 01:35:45;;;;;;;;;;;;;;;16.69;56.24;100683.16;5068116;28;1897;-49
2024/04/01 01:38:13;;;;;;;;;;;;;;;16.54;56.25;100684.03;5093993;28;1173;-46
2024/04/01 01:40:39;;;;;;;;;;;;;;;16.48;55.94;100682.34;5088209;28;1094;-46
2024/04/01 01:43:04;;;;;;;;;;;;;;;16.80;57.09;100692.22;5090165;28;999;-47
2024/04/01 01:45:30;;;;;;;;;;;;;;;17.99;55.53;100693.44;5086573;28;1040;-46
2024/04/01 01:47:55;;;;;;;;;;;;;;;17.21;56.81;100689.41;5095816;28;1022;-45
2024/04/01 01:50:21;;;;;;;;;;;;;;;16.88;56.89;100699.91;5096501;28;1102;-46
2024/04/01 01:52:46;;;;;;;;;;;;;;;16.70;56.73;100699.34;5096000;28;1045;-49
2024/04/01 01:55:12;;;;;;;;;;;;;;;16.50;56.67;100693.91;5092312;28;1905;-46
2024/04/01 01:57:37;;;;;;;;;;;;;;;16.49;56.21;100689.50;5092934;28;1049;-45
2024/04/01 02:00:05;;;;;;;;;;;;;;;16.38;56.28;100685.94;5086202;28;1062;-45
2024/04/01 02:02:32;;;;;;;;;;;;;;;16.55;57.24;100691.13;5085329;28;1815;-44
2024/04/01 02:04:58;;;;;;;;;;;;;;;17.84;55.92;100693.50;5096526;28;1213;-50
2024/04/01 02:07:23;;;;;;;;;;;;;;;17.38;56.62;100683.56;5096163;28;1026;-47
2024/04/01 02:09:49;;;;;;;;;;;;;;;17.00;56.70;100692.22;5100576;28;1000;-48
2024/04/01 02:12:14;;;;;;;;;;;;;;;16.78;56.79;100689.75;5100587;28;1058;-51
2024/04/01 02:14:40;;;;;;;;;;;;;;;16.60;56.73;100685.66;5100657;28;1901;-44
2024/04/01 02:17:05;;;;;;;;;;;;;;;16.52;56.31;100692.53;5100148;28;1034;-48
2024/04/01 02:19:31;;;;;;;;;;;;;;;16.39;56.17;100688.41;5092603;28;1030;-46
2024/04/01 02:21:57;;;;;;;;;;;;;;;16.95;57.31;100686.72;5093398;28;1150;-49
2024/04/01 02:24:22;;;;;;;;;;;;;;;18.03;55.50;100688.19;5089204;28;1201;-46
2024/04/01 02:26:48;;;;;;;;;;;;;;;17.27;56.61;100683.59;5099727;28;1146;-47
2024/04/01 02:29:13;;;;;;;;;;;;;;;16.90;56.57;100687.56;5090897;28;1114;-48
2024/04/01 02:31:39;;;;;;;;;;;;;;;16.70;56.78;100682.06;5086972;28;2388;-46
2024/04/01 02:34:06;;;;;;;;;;;;;;;16.60;56.29;100682.91;5099936;28;1982;-47
2024/04/01 02:36:31;;;;;;;;;;;;;;;16.51;55.99;100685.38;5098404;28;1030;-46
2024/04/01 02:38:57;;;;;;;;;;;;;;;16.51;56.53;100687.28;5099598;28;1098;-46
2024/04/01 02:41:22;;;;;;;;;;;;;;;17.76;56.20;100684.75;5099613;28;1210;-46
2024/04/01 02:43:48;;;;;;;;;;;;;;;17.50;56.11;100686.00;5090880;28;1084;-48
2024/04/01 02:46:14;;;;;;;;;;;;;;;16.97;56.85;100687.28;5095313;28;1098;-46
2024/04/01 02:48:39;;;;;;;;;;;;;;;16.82;56.50;100693.59;5099379;28;1116;-47
2024/04/01 02:51:05;;;;;;;;;;;;;;;16.65;56.35;100680.16;5096905;28;1057;-46
2024/04/01 02:53:30;;;;;;;;;;;;;;;16.47;56.50;100680.72;5089178;28;1284;-46
2024/04/01 02:55:56;;;;;;;;;;;;;;;16.45;55.96;100680.16;5091501;28;1909;-46
2024/04/01 02:58:21;;;;;;;;;;;;;;;16.31;56.18;100677.97;5100286;28;1229;-47
2024/04/01 03:00:47;;;;;;;;;;;;;;;16.82;57.15;100679.03;5099319;28;1054;-48
2024/04/01 03:03:12;;;;;;;;;;;;;;;17.93;55.73;100675.34;5090762;28;1085;-47
2024/04/01 03:05:38;;;;;;;;;;;;;;;17.20;56.61;100685.81;5095446;28;1054;-49
2024/04/01 03:08:04;;;;;;;;;;;;;;;16.95;56.53;100686.72;5088796;28;1422;-45
2024/04/01 03:10:30;;;;;;;;;;;;;;;16.71;56.67;100690.03;5081559;28;1040;-47
2024/04/01 03:12:55;;;;;;;;;;;;;;;16.52;56.57;100678.81;5091020;28;1146;-46
2024/04/01 03:15:21;;;;;;;;;;;;;;;16.47;55.93;100678.00;5092487;28;1910;-45
2024/04/01 03:17:46;;;;;;;;;;;;;;;16.98;57.29;100685.34;5092648;28;1214;-46
2024/04/01 03:20:12;;;;;;;;;;;;;;;17.81;55.57;100683.06;5099190;28;839;-45
2024/04/01 03:22:39;;;;;;;;;;;;;;;17.14;56.72;100691.63;5088642;28;1178;-44
2024/04/01 03:25:04;;;;;;;;;;;;;;;16.86;56.68;100691.94;5106415;28;917;-50
2024/04/01 03:27:30;;;;;;;;;;;;;;;16.70;56.20;100693.88;5097099;28;1158;-47
2024/04/01 03:29:56;;;;;;;;;;;;;;;16.59;56.22;100698.56;5098615;28;1011;-47
2024/04/01 03:32:21;;;;;;;;;;;;;;;16.49;56.09;100697.75;5089533;28;1097;-47
2024/04/01 03:34:47;;;;;;;;;;;;;;;17.22;56.90;100696.53;5097158;28;1909;-48
2024/04/01 03:37:13;;;;;;;;;;;;;;;17.90;55.32;100695.13;5098587;28;1065;-45
2024/04/01 03:39:38;;;;;;;;;;;;;;;17.15;56.41;100694.06;5098762;28;1089;-48
2024/04/01 03:42:04;;;;;;;;;;;;;;;16.86;56.67;100705.66;5089949;28;1163;-47
2024/04/01 03:44:29;;;;;;;;;;;;;;;16.73;56.62;100703.47;5084874;28;1152;-46
2024/04/01 03:46:55;;;;;;;;;;;;;;;16.56;56.35;100692.78;5091200;28;1324;-47
2024/04/01 03:49:20;;;;;;;;;;;;;;;16.48;56.75;100699.66;5086358;28;1308;-45
2024/04/01 03:51:47;;;;;;;;;;;;;;;17.81;55.92;100694.91;5089481;28;1284;-45
2024/04/01 03:54:12;;;;;;;;;;;;;;;17.31;56.60;100694.88;5092327;28;1914;-46
2024/04/01 03:56:38;;;;;;;;;;;;;;;16.86;56.79;100708.41;5089689;28;1074;-53
2024/04/01 03:59:03;;;;;;;;;;;;;;;16.74;56.47;100705.13;5098076;28;1137;-50
2024/04/01 04:01:29;;;;;;;;;;;;;;;16.60;56.61;100707.63;5099049;28;1053;-49
2024/04/01 04:03:54;;;;;;;;;;;;;;;16.48;56.34;100702.41;5084584;28;1069;-45
2024/04/01 04:06:20;;;;;;;;;;;;;;;16.31;56.51;100713.63;5097254;28;1042;-47
2024/04/01 04:08:47;;;;;;;;;;;;;;;17.23;55.67;100709.19;5088280;28;1162;-48
2024/04/01 04:11:12;;;;;;;;;;;;;;;16.83;55.26;100710.88;5097464;28;1309;-48
2024/04/01 04:13:38;;;;;;;;;;;;;;;16.69;55.50;100703.22;5084753;28;1205;-51
2024/04/01 04:16:03;;;;;;;;;;;;;;;17.77;53.93;100705.66;5098205;28;1988;-47
2024/04/01 04:18:29;;;;;;;;;;;;;;;16.88;54.32;100705.38;5097817;28;1002;-47
2024/04/01 04:20:54;;;;;;;;;;;;;;;16.67;52.97;100708.16;5090433;28;864;-49
2024/04/01 04:23:23;;;;;;;;;;;;;;;16.46;51.72;100710.09;5092205;28;1231;-47
2024/04/01 04:25:49;;;;;;;;;;;;;;;16.35;51.20;100706.50;5098092;28;1485;-49
2024/04/01 04:28:14;;;;;;;;;;;;;;;17.02;52.93;100708.41;5097182;28;1163;-46
2024/04/01 04:30:39;;;;;;;;;;;;;;;16.88;53.82;100717.22;5097636;28;1124;-48
2024/04/01 04:33:05;;;;;;;;;;;;;;;16.60;52.70;100724.09;5097824;28;1070;-50
2024/04/01 04:35:31;;;;;;;;;;;;;;;16.45;51.37;100715.84;5095931;28;1902;-50
2024/04/01 04:37:56;;;;;;;;;;;;;;;17.45;53.03;100723.38;5084094;28;1388;-51
2024/04/01 04:40:22;;;;;;;;;;;;;;;16.81;52.51;100721.34;5091441;28;1403;-50
2024/04/01 04:42:47;;;;;;;;;;;;;;;17.28;53.46;100722.91;5093191;28;1165;-48
2024/04/01 04:45:13;;;;;;;;;;;;;;;17.39;53.30;100721.78;5094674;28;1299;-49
2024/04/01 04:47:38;;;;;;;;;;;;;;;16.91;52.58;100721.34;5094873;28;1157;-48
2024/04/01 04:50:04;;;;;;;;;;;;;;;18.09;53.34;100720.06;5096551;28;1418;-51
2024/04/01 04:52:29;;;;;;;;;;;;;;;17.21;53.20;100725.13;5091725;28;1086;-52
2024/04/01 04:54:55;;;;;;;;;;;;;;;16.99;51.68;100725.47;5096265;28;1905;-52
2024/04/01 04:57:20;;;;;;;;;;;;;;;16.81;50.89;100729.56;5087043;28;1043;-50
2024/04/01 04:59:48;;;;;;;;;;;;;;;17.67;52.39;100733.22;5090613;28;1229;-54
2024/04/01 05:02:13;;;;;;;;;;;;;;;16.94;52.64;100729.03;5093479;28;1027;-49
2024/04/01 05:04:39;;;;;;;;;;;;;;;16.83;51.22;100735.59;5093431;28;1164;-50
2024/04/01 05:07:04;;;;;;;;;;;;;;;16.87;51.51;100736.69;5097644;28;1327;-48
2024/04/01 05:09:30;;;;;;;;;;;;;;;17.25;52.41;100731.69;5089961;28;1352;-48
2024/04/01 05:11:56;;;;;;;;;;;;;;;16.87;51.19;100739.44;5077157;28;1229;-55
2024/04/01 05:14:23;;;;;;;;;;;;;;;17.82;52.08;100723.25;5096882;28;1996;-54
2024/04/01 05:16:51;;;;;;;;;;;;;;;17.17;51.87;100729.53;5096392;28;1049;-55
2024/04/01 05:19:18;;;;;;;;;;;;;;;16.86;51.09;100729.56;5083901;28;1121;-55
2024/04/01 05:21:44;;;;;;;;;;;;;;;16.74;50.19;100725.16;5082439;28;880;-56
2024/04/01 05:24:09;;;;;;;;;;;;;;;16.75;49.21;100732.31;5083245;28;1179;-56
2024/04/01 05:26:35;;;;;;;;;;;;;;;16.83;50.52;100732.84;5096708;28;1033;-55
2024/04/01 05:29:00;;;;;;;;;;;;;;;17.28;51.21;100737.47;5096273;28;1153;-51
2024/04/01 05:31:26;;;;;;;;;;;;;;;16.86;50.95;100727.63;5083321;28;1126;-54
2024/04/01 05:33:52;;;;;;;;;;;;;;;16.81;49.70;100729.56;5095672;28;889;-54
2024/04/01 05:36:18;;;;;;;;;;;;;;;17.22;50.56;100729.50;5096085;28;1988;-54
2024/04/01 05:38:44;;;;;;;;;;;;;;;17.33;51.33;100733.88;5096129;28;1213;-52
2024/04/01 05:41:09;;;;;;;;;;;;;;;16.87;51.10;100736.69;5095616;28;1140;-55
2024/04/01 05:43:35;;;;;;;;;;;;;;;16.80;49.82;100736.97;5083457;28;1233;-55
2024/04/01 05:46:00;;;;;;;;;;;;;;;18.05;50.73;100739.09;5081459;28;987;-56
2024/04/01 05:48:26;;;;;;;;;;;;;;;17.21;51.16;100739.69;5078974;28;1328;-54
2024/04/01 05:50:52;;;;;;;;;;;;;;;16.92;50.50;100734.78;5076594;28;1174;-56
2024/04/01 05:53:17;;;;;;;;;;;;;;;16.82;49.49;100729.28;5094828;28;1209;-57
2024/04/01 05:55:43;;;;;;;;;;;;;;;16.96;49.74;100729.56;5094402;28;1988;-53
2024/04/01 05:58:09;;;;;;;;;;;;;;;17.64;50.67;100722.75;5080143;28;1218;-56
2024/04/01 06:00:34;;;;;;;;;;;;;;;17.03;50.79;100737.53;5087489;28;1316;-53
2024/04/01 06:03:00;;;;;;;;;;;;;;;16.91;49.83;100732.31;5093182;28;1315;-55
2024/04/01 06:05:26;;;;;;;;;;;;;;;16.76;49.19;100735.91;5087433;28;1546;-54
2024/04/01 06:07:52;;;;;;;;;;;;;;;16.67;48.84;100741.09;5085602;28;1082;-57
2024/04/01 06:10:17;;;;;;;;;;;;;;;17.79;50.08;100744.72;5093527;28;1130;-54
2024/04/01 06:12:42;;;;;;;;;;;;;;;17.33;50.80;100750.38;5082439;28;1261;-55
2024/04/01 06:15:08;;;;;;;;;;;;;;;17.04;50.08;100752.91;5081530;28;1980;-47
2024/04/01 06:17:33;;;;;;;;;;;;;;;16.82;49.58;100744.97;5086780;28;1370;-53
2024/04/01 06:19:59;;;;;;;;;;;;;;;17.79;49.97;100752.97;5087050;28;1348;-54
2024/04/01 06:22:24;;;;;;;;;;;;;;;17.33;51.17;100749.56;5086715;28;1114;-55
2024/04/01 06:24:50;;;;;;;;;;;;;;;17.04;50.25;100748.25;5092691;28;1360;-55
2024/04/01 06:27:15;;;;;;;;;;;;;;;17.02;49.13;100744.94;5092799;28;1166;-53
2024/04/01 06:29:41;;;;;;;;;;;;;;;16.91;48.40;100754.28;5089447;28;1332;-53
2024/04/01 06:32:06;;;;;;;;;;;;;;;16.76;48.21;100758.69;5085982;28;1078;-51
2024/04/01 06:34:32;;;;;;;;;;;;;;;16.82;48.44;100761.44;5098987;28;1977;-50
2024/04/01 06:36:57;;;;;;;;;;;;;;;17.54;49.85;100756.63;5095815;28;1149;-49
2024/04/01 06:39:23;;;;;;;;;;;;;;;17.16;49.54;100758.13;5088567;28;1098;-56
2024/04/01 06:41:48;;;;;;;;;;;;;;;16.86;49.30;100757.84;5082252;28;1174;-57
2024/04/01 06:44:15;;;;;;;;;;;;;;;16.77;48.70;100756.75;5095355;28;1170;-53
2024/04/01 06:46:41;;;;;;;;;;;;;;;17.74;49.07;100766.72;5095538;28;898;-52
2024/04/01 06:49:06;;;;;;;;;;;;;;;17.39;50.33;100760.25;5095324;28;1010;-55
2024/04/01 06:51:32;;;;;;;;;;;;;;;17.20;49.63;100768.25;5095656;28;1137;-54
2024/04/01 06:53:57;;;;;;;;;;;;;;;17.14;49.53;100763.06;5095533;28;1265;-57
2024/04/01 06:56:23;;;;;;;;;;;;;;;17.69;50.24;100760.44;5096963;28;1910;-56
2024/04/01 06:58:48;;;;;;;;;;;;;;;17.22;49.93;100760.59;5093685;28;985;-54
2024/04/01 07:01:14;;;;;;;;;;;;;;;18.21;49.89;100763.75;5085705;28;1069;-56
2024/04/01 07:03:40;;;;;;;;;;;;;;;17.65;50.59;100762.91;5094610;28;1272;-55
2024/04/01 07:06:05;;;;;;;;;;;;;;;17.22;50.17;100765.22;5088093;28;1078;-57
2024/04/01 07:08:31;;;;;;;;;;;;;;;17.14;49.55;100757.56;5098243;28;1138;-53
2024/04/01 07:10:56;;;;;;;;;;;;;;;17.06;48.55;100757.03;5085552;28;1141;-56
2024/04/01 07:13:22;;;;;;;;;;;;;;;16.98;48.26;100757.56;5086621;28;1228;-55
2024/04/01 07:15:47;;;;;;;;;;;;;;;16.90;47.83;100752.66;5097578;28;1976;-56
2024/04/01 07:18:13;;;;;;;;;;;;;;;16.85;47.57;100755.38;5098928;28;1116;-55
2024/04/01 07:20:38;;;;;;;;;;;;;;;17.13;48.19;100754.00;5081492;28;1100;-56
2024/04/01 07:23:04;;;;;;;;;;;;;;;17.28;49.32;100755.91;5090635;28;1034;-52
2024/04/01 07:25:29;;;;;;;;;;;;;;;17.00;48.89;100749.91;5088404;28;1451;-52
2024/04/01 07:27:55;;;;;;;;;;;;;;;18.00;49.54;100746.56;5098696;28;1043;-49
2024/04/01 07:30:20;;;;;;;;;;;;;;;17.34;49.83;100746.53;5091892;28;1292;-53
2024/04/01 07:32:46;;;;;;;;;;;;;;;17.14;49.18;100755.66;5093711;28;1295;-53
2024/04/01 07:35:11;;;;;;;;;;;;;;;17.08;48.45;100760.34;5088924;28;1902;-51
2024/04/01 07:37:37;;;;;;;;;;;;;;;16.97;48.26;100750.47;5096709;28;1288;-50
2024/04/01 07:40:03;;;;;;;;;;;;;;;16.91;47.73;100754.28;5097347;28;1034;-47
2024/04/01 07:42:28;;;;;;;;;;;;;;;16.82;48.10;100761.44;5095155;28;1366;-57
2024/04/01 07:44:54;;;;;;;;;;;;;;;17.53;49.20;100749.50;5088037;28;1039;-56
2024/04/01 07:47:19;;;;;;;;;;;;;;;17.10;49.18;100752.63;5095741;28;971;-56
2024/04/01 07:49:48;;;;;;;;;;;;;;;16.91;48.77;100762.53;5098369;28;1406;-50
2024/04/01 07:52:13;;;;;;;;;;;;;;;16.83;48.35;100752.91;5097711;28;1145;-49
2024/04/01 07:54:39;;;;;;;;;;;;;;;17.72;48.81;100752.41;5097815;28;1977;-52
2024/04/01 07:57:04;;;;;;;;;;;;;;;17.16;49.53;100744.38;5091319;28;1217;-52
2024/04/01 07:59:30;;;;;;;;;;;;;;;16.98;48.90;100738.34;5086939;28;1090;-53
2024/04/01 08:01:56;;;;;;;;;;;;;;;16.91;48.43;100738.66;5093512;28;1297;-57
2024/04/01 08:04:23;;;;;;;;;;;;;;;16.89;47.88;100740.84;5087149;28;1313;-59
2024/04/01 08:06:49;;;;;;;;;;;;;;;17.81;48.74;100736.19;5097415;28;1134;-53
2024/04/01 08:09:14;;;;;;;;;;;;;;;17.37;49.98;100729.47;5097691;28;1034;-55
2024/04/01 08:11:40;;;;;;;;;;;;;;;17.09;49.48;100731.72;5097343;28;1142;-55
2024/04/01 08:14:05;;;;;;;;;;;;;;;17.03;48.88;100734.78;5082977;28;1031;-54
2024/04/01 08:16:31;;;;;;;;;;;;;;;16.87;48.74;100731.19;5085234;28;1955;-52
2024/04/01 08:18:56;;;;;;;;;;;;;;;16.89;47.95;100727.13;5085773;28;1090;-52
2024/04/01 08:21:22;;;;;;;;;;;;;;;16.77;47.77;100727.38;5081779;28;1304;-54
2024/04/01 08:23:47;;;;;;;;;;;;;;;16.77;47.29;100726.53;5081998;28;1081;-51
2024/04/01 08:26:13;;;;;;;;;;;;;;;17.60;48.41;100722.50;5078486;28;1359;-47
2024/04/01 08:28:38;;;;;;;;;;;;;;;17.16;48.77;100716.91;5081273;28;1037;-49
2024/04/01 08:31:04;;;;;;;;;;;;;;;16.92;48.49;100717.50;5097338;28;1233;-52
2024/04/01 08:33:29;;;;;;;;;;;;;;;16.88;48.02;100721.88;5097946;28;1303;-55
2024/04/01 08:35:54;;;;;;;;;;;;;;;17.69;48.74;100722.75;5090749;28;1974;-53
2024/04/01 08:38:20;;;;;;;;;;;;;;;17.28;49.02;100714.66;5076655;28;1014;-55
2024/04/01 08:40:50;;;;;;;;;;;;;;;17.09;48.72;100717.19;5094613;28;1210;-52
2024/04/01 08:43:17;;;;;;;;;;;;;;;16.84;48.42;100710.59;5097686;28;1153;-50
2024/04/01 08:45:43;;;;;;;;;;;;;;;16.81;48.17;100715.84;5078980;28;1280;-54
2024/04/01 08:48:09;;;;;;;;;;;;;;;16.89;47.50;100718.88;5068549;28;1094;-53
2024/04/01 08:50:37;;;;;;;;;;;;;;;17.79;48.40;100708.13;5081166;28;1027;-54
2024/04/01 08:53:23;;;;;;;;;;;;;;;17.15;49.19;100709.75;5090158;28;1042;-52
2024/04/01 08:55:48;;;;;;;;;;;;;;;16.89;49.03;100710.63;5067474;28;1914;-54
2024/04/01 08:58:14;;;;;;;;;;;;;;;17.64;49.00;100709.00;5076469;28;1146;-47
2024/04/01 09:00:40;;;;;;;;;;;;;;;17.27;49.59;100702.84;5079159;28;1166;-44
2024/04/01 09:03:05;;;;;;;;;;;;;;;17.12;49.09;100707.56;5097016;28;1042;-45
2024/04/01 09:05:30;;;;;;;;;;;;;;;17.04;48.62;100711.69;5070858;28;1030;-49
2024/04/01 09:07:56;;;;;;;;;;;;;;;16.95;48.38;100711.44;5091471;28;1047;-47
2024/04/01 09:10:22;;;;;;;;;;;;;;;17.62;49.45;100708.47;5092699;28;1090;-46
2024/04/01 09:12:47;;;;;;;;;;;;;;;17.20;49.28;100699.56;5096772;28;1308;-45
2024/04/01 09:15:13;;;;;;;;;;;;;;;17.06;48.90;100696.59;5084054;28;1913;-46
2024/04/01 09:17:38;;;;;;;;;;;;;;;17.04;48.41;100703.44;5095988;28;1441;-48
2024/04/01 09:20:07;;;;;;;;;;;;;;;16.99;47.99;100701.53;5090747;28;1050;-48
2024/04/01 09:22:32;;;;;;;;;;;;;;;16.88;47.91;100705.38;5085644;28;1089;-47
2024/04/01 09:24:58;;;;;;;;;;;;;;;17.99;48.37;100700.88;5077422;28;1046;-49
2024/04/01 09:27:25;;;;;;;;;;;;;;;17.28;49.40;100693.50;5078266;28;1074;-46
2024/04/01 09:29:51;;;;;;;;;;;;;;;17.09;48.86;100693.28;5093217;28;1063;-51
2024/04/01 09:32:16;;;;;;;;;;;;;;;16.93;48.42;100692.50;5085553;28;1101;-49
2024/04/01 09:34:42;;;;;;;;;;;;;;;16.90;48.11;100700.47;5085910;28;1902;-50
2024/04/01 09:37:08;;;;;;;;;;;;;;;16.88;47.67;100692.50;5082538;28;1011;-47
2024/04/01 09:39:34;;;;;;;;;;;;;;;17.55;48.15;100691.47;5064341;28;956;-48
2024/04/01 09:42:00;;;;;;;;;;;;;;;17.30;48.87;100686.91;5073362;28;1320;-50
2024/04/01 09:44:25;;;;;;;;;;;;;;;17.08;48.69;100685.31;5090890;28;1316;-46
2024/04/01 09:46:54;;;;;;;;;;;;;;;16.91;48.46;100680.97;5095374;28;1014;-49
2024/04/01 09:49:20;;;;;;;;;;;;;;;16.97;47.89;100676.28;5096255;28;1511;-48
2024/04/01 09:51:46;;;;;;;;;;;;;;;16.89;47.53;100676.88;5093480;28;1154;-43
2024/04/01 09:54:12;;;;;;;;;;;;;;;16.85;47.48;100667.50;5085261;28;1055;-52
2024/04/01 09:56:37;;;;;;;;;;;;;;;17.74;48.25;100680.63;5095817;28;1964;-50
2024/04/01 09:59:21;;;;;;;;;;;;;;;17.24;49.04;100669.63;5083695;28;1342;-49
2024/04/01 10:02:06;;;;;;;;;;;;;;;17.10;48.61;100667.44;5093536;28;1035;-51
2024/04/01 10:04:50;;;;;;;;;;;;;;;16.96;48.15;100665.56;5095557;28;1109;-46
2024/04/01 10:07:34;;;;;;;;;;;;;;;16.98;48.04;100657.88;5082949;28;1134;-45
2024/04/01 10:10:18;;;;;;;;;;;;;;;16.87;47.55;100659.78;5086079;28;1433;-49
2024/04/01 10:12:50;;;;;;;;;;;;;;;16.90;47.29;100653.75;5082230;28;1350;-46
2024/04/01 10:15:18;;;;;;;;;;;;;;;17.86;48.33;100652.81;5095141;28;1910;-47
2024/04/01 10:17:47;;;;;;;;;;;;;;;17.31;48.87;100647.34;5095816;28;1069;-45
2024/04/01 10:20:15;;;;;;;;;;;;;;;17.07;48.74;100654.28;5088887;28;1296;-48
2024/04/01 10:23:10;;;;;;;;;;;;;;;17.06;48.20;100658.13;5081033;28;999;-47
2024/04/01 10:25:35;;;;;;;;;;;;;;;17.04;47.87;100643.00;5037658;28;1266;-50
2024/04/01 10:28:07;;;;;;;;;;;;;;;16.92;47.66;100641.41;5094565;28;1418;-45
2024/04/01 10:30:42;;;;;;;;;;;;;;;16.89;47.66;100636.47;5099819;28;1055;-46
2024/04/01 10:33:27;;;;;;;;;;;;;;;17.95;48.25;100645.63;5068474;28;1067;-46
2024/04/01 10:35:52;;;;;;;;;;;;;;;17.27;49.23;100641.56;5096839;28;1905;-48
2024/04/01 10:38:24;;;;;;;;;;;;;;;17.18;48.64;100640.50;5088847;28;1054;-50
2024/04/01 10:40:50;;;;;;;;;;;;;;;17.14;48.36;100633.91;5082481;28;1201;-54
2024/04/01 10:43:34;;;;;;;;;;;;;;;17.06;47.88;100630.66;5092169;28;986;-47
2024/04/01 10:45:59;;;;;;;;;;;;;;;17.83;48.47;100625.88;5099379;28;1125;-51
2024/04/01 10:48:27;;;;;;;;;;;;;;;17.24;49.04;100620.97;5087137;28;1125;-50
2024/04/01 10:51:01;;;;;;;;;;;;;;;17.17;48.68;100616.91;5089944;28;1126;-50
2024/04/01 10:53:44;;;;;;;;;;;;;;;17.12;48.17;100611.41;5084479;28;1083;-49
2024/04/01 10:56:19;;;;;;;;;;;;;;;17.08;48.04;100601.00;5066260;28;1926;-51
2024/04/01 10:59:01;;;;;;;;;;;;;;;17.02;47.58;100607.59;5080117;28;1035;-48
2024/04/01 11:01:29;;;;;;;;;;;;;;;16.92;47.55;100596.66;5096470;28;1148;-45
2024/04/01 11:04:11;;;;;;;;;;;;;;;16.89;47.50;100602.72;5101710;28;977;-47
2024/04/01 11:06:36;;;;;;;;;;;;;;;16.90;47.42;100596.94;5080755;28;1044;-47
2024/04/01 11:09:08;;;;;;;;;;;;;;;16.92;47.06;100591.16;5097711;28;1067;-50
2024/04/01 11:11:33;;;;;;;;;;;;;;;16.87;47.21;100585.63;5088992;28;1319;-47
2024/04/01 11:13:59;;;;;;;;;;;;;;;16.85;47.16;100579.63;5084044;28;1263;-46
2024/04/01 11:16:26;;;;;;;;;;;;;;;16.97;47.37;100571.91;5085319;28;2009;-49
2024/04/01 11:19:10;;;;;;;;;;;;;;;17.49;48.28;100579.88;5078907;28;1133;-49
2024/04/01 11:21:35;;;;;;;;;;;;;;;17.03;48.97;100570.78;5092344;28;1255;-50
2024/04/01 11:24:21;;;;;;;;;;;;;;;17.03;48.24;100565.28;5087762;28;1429;-45
2024/04/01 11:27:02;;;;;;;;;;;;;;;16.99;47.82;100561.47;5047160;28;1456;-50
2024/04/01 11:29:33;;;;;;;;;;;;;;;16.92;47.76;100566.44;5092479;28;1573;-48
2024/04/01 11:31:59;;;;;;;;;;;;;;;16.95;47.31;100562.31;5085201;28;1201;-48
2024/04/01 11:34:31;;;;;;;;;;;;;;;17.64;48.04;100563.28;5085566;28;1961;-49
2024/04/01 11:36:56;;;;;;;;;;;;;;;17.17;48.61;100559.19;5088145;28;1118;-48
2024/04/01 11:39:22;;;;;;;;;;;;;;;17.08;48.60;100556.19;5092738;28;1090;-48
2024/04/01 11:41:48;;;;;;;;;;;;;;;17.10;47.84;100554.81;5091398;28;1082;-47
2024/04/01 11:44:14;;;;;;;;;;;;;;;17.89;47.95;100553.19;5087880;28;1335;-46
2024/04/01 11:46:40;;;;;;;;;;;;;;;17.33;48.88;100547.00;5094100;28;1197;-50
2024/04/01 11:49:05;;;;;;;;;;;;;;;17.82;49.01;100549.97;5088656;28;1165;-48
2024/04/01 11:51:31;;;;;;;;;;;;;;;17.99;49.29;100542.13;5092832;28;1284;-50
2024/04/01 11:53:57;;;;;;;;;;;;;;;17.54;49.84;100538.63;5095698;28;1275;-47
2024/04/01 11:56:41;;;;;;;;;;;;;;;17.45;48.84;100533.72;5074155;28;1906;-51
2024/04/01 11:59:07;;;;;;;;;;;;;;;17.31;48.90;100537.41;5076556;28;1292;-52
2024/04/01 12:01:36;;;;;;;;;;;;;;;17.26;48.28;100535.50;5092294;28;1132;-46
2024/04/01 12:04:02;;;;;;;;;;;;;;;17.23;47.83;100525.88;5096458;28;1296;-50
2024/04/01 12:06:30;;;;;;;;;;;;;;;17.22;47.76;100528.91;5096763;28;1351;-50
2024/04/01 12:08:57;;;;;;;;;;;;;;;17.20;47.38;100531.16;5098041;28;1154;-49
2024/04/01 12:11:25;;;;;;;;;;;;;;;17.16;47.40;100530.06;5097787;28;1340;-45
2024/04/01 12:13:50;;;;;;;;;;;;;;;17.12;47.15;100518.00;5093142;28;1308;-51
2024/04/01 12:16:16;;;;;;;;;;;;;;;17.08;47.10;100515.81;5068938;28;1905;-45
2024/04/01 12:18:42;;;;;;;;;;;;;;;16.96;47.35;100515.34;5079427;28;1185;-46
2024/04/01 12:21:08;;;;;;;;;;;;;;;16.88;47.15;100516.72;5062441;28;1332;-48
2024/04/01 12:23:34;;;;;;;;;;;;;;;17.02;46.69;100511.44;5075394;28;1300;-47
2024/04/01 12:26:11;;;;;;;;;;;;;;;16.91;46.91;100504.38;5094448;28;1154;-49
2024/04/01 12:28:37;;;;;;;;;;;;;;;16.95;46.65;100496.41;5090022;28;1090;-48
2024/04/01 12:31:03;;;;;;;;;;;;;;;16.83;46.83;100497.53;5090620;28;1085;-46
2024/04/01 12:33:29;;;;;;;;;;;;;;;16.88;46.94;100496.66;5095539;28;1098;-48
2024/04/01 12:35:55;;;;;;;;;;;;;;;16.82;46.83;100489.56;5065592;28;1983;-47
2024/04/01 12:38:22;;;;;;;;;;;;;;;16.89;46.54;100485.44;5065113;28;1023;-49
2024/04/01 12:40:49;;;;;;;;;;;;;;;16.93;46.88;100482.94;5072300;28;1106;-45
2024/04/01 12:43:19;;;;;;;;;;;;;;;17.53;48.13;100474.56;5097281;28;1089;-47
2024/04/01 12:45:45;;;;;;;;;;;;;;;17.24;48.22;100458.03;5084031;28;1030;-49